首页
METAR-TAF:

METAR-TAF

机场 :

Monte Argentario, 意大利

纬度: 42-23N, 经度: 011-10E, 海拔: 630米

当前天气观测

该预报发布于23分钟前的12:55 UTC
风速2节,风向西转西北
温度 9°C
湿度 76%
气压 1005 hPa
能见度10公里或以上
多云层高于500英尺

METAR: LIQO 031255Z 29002KT 9999 BKN005 09/05 Q1005 RMK BKN VAL NIL NC VIS MIN 9999

时间: 14:18 (13:18 UTC)


TAF: 丢失

超过4000个机场的气象观测和天气预报(METAR&TAF报告)。

可查询的气象台以黄色和红色小点在地图上表示。

将鼠标移到小点上方,可查看气象台名称。

然后点击查看天气观测和预报。

如需切换地图:点击带黑十字的绿色按钮放大地图;点击带横线的绿色按钮缩小地图;或者点击绿色箭头查看邻近地区的地图。


METAR-TAF: